Air Navigation Services of Czech Republic
Airport: LKPJ Updated:  24.07.2021 07:00:29  UTC
 METAR LKPJ 24.07. 07:00 ...
METAR LKPJ 240700Z AUTO 04003KT 340V080 CAVOK 20/12 Q1015=